Time;durP1;ratioP1;P1;durP2;ratioP2;P2;SDS_P1;SDS_P2;PMS_P1;PMS_P2;Temp;Humidity;BMP_temperature;BMP_pressure;BME280_temperature;BME280_humidity;BME280_pressure;Samples;Min_cycle;Max_cycle;Signal;HPM_P1;HPM_P2
2022/09/03 05:48:14;;;;;;;;;;;18.00;1.00;;;;;;6262341;22;19968;-88
2022/09/03 05:50:48;;;;;;;;;;;18.00;1.00;;;;;;6253008;22;19950;-88
2022/09/03 05:53:17;;;;;;;;;;;18.00;1.00;;;;;;6228234;22;19969;-86
2022/09/03 05:55:53;;;;;;;;;;;18.00;1.00;;;;;;6280251;22;20001;-87
2022/09/03 05:58:20;;;;;;;;;;;17.80;1.00;;;;;;6254873;22;20331;-82
2022/09/03 06:00:47;;;;;;;;;;;17.90;1.00;;;;;;6253899;22;19915;-87
2022/09/03 06:03:14;;;;;;;;;;;18.10;1.00;;;;;;6228526;22;20222;-88
2022/09/03 06:05:54;;;;;;;;;;;18.10;1.00;;;;;;6228803;22;19915;-87
2022/09/03 06:08:21;;;;;;;;;;;18.20;1.00;;;;;;6228235;22;19919;-88
2022/09/03 06:10:50;;;;;;;;;;;18.20;1.00;;;;;;6254905;22;19915;-88
2022/09/03 06:13:24;;;;;;;;;;;18.10;1.00;;;;;;6255292;22;19915;-89
2022/09/03 06:15:59;;;;;;;;;;;18.10;1.00;;;;;;6252977;22;20285;-89
2022/09/03 06:18:27;;;;;;;;;;;18.20;1.00;;;;;;6254632;22;19919;-84
2022/09/03 06:21:22;;;;;;;;;;;18.20;1.00;;;;;;6278767;22;20250;-90
2022/09/03 06:27:21;;;;;;;;;;;18.10;1.00;;;;;;6209298;23;19985;-90
2022/09/03 06:34:02;;;;;;;;;;;18.10;1.00;;;;;;6220569;23;19933;-89
2022/09/03 06:51:43;;;;;;;;;;;18.10;1.00;;;;;;6072911;23;19917;-90
2022/09/03 06:54:18;;;;;;;;;;;18.20;1.00;;;;;;6072067;23;20298;-83
2022/09/03 06:56:55;;;;;;;;;;;18.10;1.00;;;;;;6095500;23;19917;-91
2022/09/03 07:00:15;;;;;;;;;;;18.10;1.00;;;;;;6092569;23;19996;-91
2022/09/03 07:03:06;;;;;;;;;;;18.10;1.00;;;;;;6097490;23;19967;-89
2022/09/03 07:09:37;;;;;;;;;;;18.20;1.00;;;;;;6125866;23;19995;-89
2022/09/03 07:12:36;;;;;;;;;;;18.20;1.00;;;;;;6125928;23;19917;-91
2022/09/03 07:45:11;;;;;;;;;;;18.30;1.00;;;;;;6285291;22;19922;-90
2022/09/03 08:43:16;;;;;;;;;;;19.00;1.00;;;;;;6217708;23;19916;-85
2022/09/03 08:45:43;;;;;;;;;;;19.00;1.00;;;;;;6190625;23;20018;-85
2022/09/03 08:49:21;;;;;;;;;;;19.10;1.00;;;;;;6190343;23;19916;-89
2022/09/03 08:56:29;;;;;;;;;;;19.20;1.00;;;;;;6253055;22;19931;-91
2022/09/03 08:59:46;;;;;;;;;;;19.30;1.00;;;;;;6246620;22;19991;-89
2022/09/03 09:06:45;;;;;;;;;;;19.50;1.00;;;;;;6279595;22;19915;-90
2022/09/03 09:09:50;;;;;;;;;;;19.60;1.00;;;;;;6241384;22;19935;-88
2022/09/03 09:12:37;;;;;;;;;;;19.60;1.00;;;;;;6252332;22;19947;-86
2022/09/03 09:16:07;;;;;;;;;;;19.70;1.00;;;;;;6280269;22;19919;-89
2022/09/03 09:19:25;;;;;;;;;;;19.70;1.00;;;;;;6093836;23;20337;-89
2022/09/03 09:23:10;;;;;;;;;;;19.80;1.00;;;;;;5988386;23;19926;-89
2022/09/03 09:26:17;;;;;;;;;;;19.80;1.00;;;;;;6003839;23;20389;-85
2022/09/03 09:28:45;;;;;;;;;;;19.90;1.00;;;;;;6127765;23;19948;-85
2022/09/03 09:31:17;;;;;;;;;;;20.00;1.00;;;;;;6128283;23;19941;-88
2022/09/03 09:33:45;;;;;;;;;;;20.10;1.00;;;;;;6126704;23;19917;-89
2022/09/03 09:36:15;;;;;;;;;;;20.10;1.00;;;;;;6127019;23;19917;-89
2022/09/03 09:38:44;;;;;;;;;;;20.20;1.00;;;;;;6102866;23;20425;-88
2022/09/03 09:41:12;;;;;;;;;;;20.30;1.00;;;;;;6103396;23;19968;-90
2022/09/03 09:44:09;;;;;;;;;;;20.30;1.00;;;;;;6080253;23;19917;-88
2022/09/03 09:47:30;;;;;;;;;;;20.30;1.00;;;;;;6126809;23;19932;-89
2022/09/03 09:51:01;;;;;;;;;;;20.40;1.00;;;;;;6053318;23;19924;-89
2022/09/03 09:53:30;;;;;;;;;;;20.50;1.00;;;;;;6060736;23;19942;-88
2022/09/03 09:56:24;;;;;;;;;;;20.60;1.00;;;;;;6218221;22;20301;-89
2022/09/03 09:59:09;;;;;;;;;;;20.70;1.00;;;;;;6251555;23;19915;-90
2022/09/03 10:01:43;;;;;;;;;;;20.70;1.00;;;;;;6222837;23;19950;-89
2022/09/03 10:04:21;;;;;;;;;;;20.80;1.00;;;;;;6274931;22;20015;-89
2022/09/03 10:06:56;;;;;;;;;;;20.70;1.00;;;;;;6247196;23;20274;-89
2022/09/03 10:09:35;;;;;;;;;;;20.70;1.00;;;;;;6251440;22;19969;-89
2022/09/03 10:12:26;;;;;;;;;;;20.70;1.00;;;;;;6279351;22;19935;-89
2022/09/03 10:15:02;;;;;;;;;;;20.80;1.00;;;;;;6246902;23;19966;-88
2022/09/03 10:17:59;;;;;;;;;;;20.80;1.00;;;;;;6247598;23;19916;-88
2022/09/03 10:20:43;;;;;;;;;;;20.90;1.00;;;;;;6194970;22;19942;-89
2022/09/03 10:23:16;;;;;;;;;;;20.90;1.00;;;;;;6222869;22;19922;-89
2022/09/03 10:25:50;;;;;;;;;;;21.00;1.00;;;;;;6281854;22;19922;-89
2022/09/03 10:28:23;;;;;;;;;;;21.10;1.00;;;;;;6275483;22;19900;-89
2022/09/03 10:31:17;;;;;;;;;;;21.10;1.00;;;;;;6274435;22;19899;-89
2022/09/03 10:34:03;;;;;;;;;;;21.20;1.00;;;;;;6271656;22;19915;-89
2022/09/03 10:36:33;;;;;;;;;;;21.40;1.00;;;;;;6278110;22;19956;-88
2022/09/03 10:39:23;;;;;;;;;;;21.50;1.00;;;;;;6261593;22;19962;-89
2022/09/03 10:42:15;;;;;;;;;;;21.60;1.00;;;;;;6271405;22;19995;-89
2022/09/03 10:45:00;;;;;;;;;;;21.80;1.00;;;;;;6282749;22;19915;-88
2022/09/03 10:48:10;;;;;;;;;;;21.80;1.00;;;;;;6257056;22;19979;-89
2022/09/03 10:50:39;;;;;;;;;;;21.70;1.00;;;;;;6279652;22;19949;-89
2022/09/03 10:53:21;;;;;;;;;;;21.70;1.00;;;;;;6224828;22;19920;-88
2022/09/03 10:56:00;;;;;;;;;;;21.80;1.00;;;;;;6223840;23;19922;-88
2022/09/03 10:58:47;;;;;;;;;;;21.90;1.00;;;;;;6254472;22;19922;-88
2022/09/03 11:01:30;;;;;;;;;;;21.90;1.00;;;;;;6224312;22;19915;-88
2022/09/03 11:04:00;;;;;;;;;;;22.10;1.00;;;;;;6246588;23;19919;-89
2022/09/03 11:06:28;;;;;;;;;;;22.20;1.00;;;;;;6250929;22;19931;-89
2022/09/03 11:09:25;;;;;;;;;;;22.20;1.00;;;;;;6223081;23;19920;-89
2022/09/03 11:11:59;;;;;;;;;;;22.20;1.00;;;;;;6228094;23;19931;-89
2022/09/03 11:14:39;;;;;;;;;;;22.50;1.00;;;;;;6251301;22;19969;-88
2022/09/03 11:17:13;;;;;;;;;;;22.50;1.00;;;;;;6246982;22;19915;-88
2022/09/03 11:19:49;;;;;;;;;;;22.60;1.00;;;;;;6222962;23;19988;-89
2022/09/03 11:22:21;;;;;;;;;;;22.80;1.00;;;;;;6224340;22;19916;-89
2022/09/03 11:28:27;;;;;;;;;;;23.10;1.00;;;;;;6275265;22;19989;-88
2022/09/03 11:31:00;;;;;;;;;;;23.30;1.00;;;;;;6247966;23;19926;-85
2022/09/03 11:33:34;;;;;;;;;;;23.30;1.00;;;;;;6252761;22;19922;-90
2022/09/03 11:36:05;;;;;;;;;;;23.30;1.00;;;;;;6246835;23;19924;-88
2022/09/03 11:38:32;;;;;;;;;;;23.40;1.00;;;;;;6252554;22;20290;-88
2022/09/03 11:41:11;;;;;;;;;;;23.50;1.00;;;;;;6247739;23;19950;-88
2022/09/03 11:43:50;;;;;;;;;;;23.60;1.00;;;;;;6246832;23;19916;-92
2022/09/03 11:46:30;;;;;;;;;;;23.70;1.00;;;;;;6278405;22;20342;-86
2022/09/03 11:49:12;;;;;;;;;;;23.70;1.00;;;;;;6247026;23;19922;-88
2022/09/03 11:51:40;;;;;;;;;;;23.90;1.00;;;;;;6279010;22;19915;-88
2022/09/03 11:54:11;;;;;;;;;;;23.90;1.00;;;;;;6247133;23;20347;-88
2022/09/03 11:56:39;;;;;;;;;;;23.90;1.00;;;;;;6267297;22;20289;-90
2022/09/03 11:59:12;;;;;;;;;;;23.90;1.00;;;;;;6222050;22;19970;-89
2022/09/03 12:01:44;;;;;;;;;;;24.00;1.00;;;;;;6278730;22;19965;-88
2022/09/03 12:04:14;;;;;;;;;;;24.20;1.00;;;;;;6278674;22;19964;-88
2022/09/03 12:06:44;;;;;;;;;;;24.20;1.00;;;;;;6246442;23;19961;-88
2022/09/03 12:09:27;;;;;;;;;;;24.40;1.00;;;;;;6251800;22;19915;-84
2022/09/03 12:12:00;;;;;;;;;;;24.40;1.00;;;;;;6277950;22;19943;-86
2022/09/03 12:14:45;;;;;;;;;;;24.50;1.00;;;;;;6250324;22;19926;-85
2022/09/03 12:17:13;;;;;;;;;;;24.60;1.00;;;;;;6222418;22;19995;-88
2022/09/03 12:20:12;;;;;;;;;;;24.50;1.00;;;;;;6249256;23;19935;-89
2022/09/03 12:22:39;;;;;;;;;;;24.70;1.00;;;;;;6266291;22;19922;-88
2022/09/03 12:25:26;;;;;;;;;;;24.80;1.00;;;;;;6245824;22;19915;-90
2022/09/03 12:27:53;;;;;;;;;;;24.90;1.00;;;;;;6278707;22;19915;-88
2022/09/03 12:30:22;;;;;;;;;;;25.00;1.00;;;;;;6278396;22;20005;-89
2022/09/03 12:32:52;;;;;;;;;;;25.00;1.00;;;;;;6236846;23;20286;-88
2022/09/03 12:35:21;;;;;;;;;;;25.10;1.00;;;;;;6248002;22;20216;-86
2022/09/03 12:38:12;;;;;;;;;;;25.10;1.00;;;;;;6278904;22;19921;-88
2022/09/03 12:40:44;;;;;;;;;;;25.10;1.00;;;;;;6278436;22;20346;-89
2022/09/03 12:43:32;;;;;;;;;;;25.20;1.00;;;;;;6251410;22;19976;-90
2022/09/03 12:46:12;;;;;;;;;;;25.30;1.00;;;;;;6246470;23;19946;-89
2022/09/03 12:48:45;;;;;;;;;;;25.10;1.00;;;;;;6246236;23;19915;-89
2022/09/03 12:51:12;;;;;;;;;;;25.30;1.00;;;;;;6222258;22;19990;-90
2022/09/03 12:54:00;;;;;;;;;;;25.40;1.00;;;;;;6224804;23;19923;-89
2022/09/03 12:56:32;;;;;;;;;;;25.40;1.00;;;;;;6276851;22;19915;-90
2022/09/03 12:59:12;;;;;;;;;;;25.60;1.00;;;;;;6246694;23;20240;-88
2022/09/03 13:01:51;;;;;;;;;;;25.60;1.00;;;;;;6267268;22;19915;-89
2022/09/03 13:04:45;;;;;;;;;;;25.60;1.00;;;;;;6279784;22;19922;-89
2022/09/03 13:07:50;;;;;;;;;;;25.70;1.00;;;;;;6235965;22;19907;-89
2022/09/03 13:10:27;;;;;;;;;;;25.80;1.00;;;;;;6105099;23;19948;-90
2022/09/03 13:13:01;;;;;;;;;;;25.90;1.00;;;;;;6284130;22;19907;-90
2022/09/03 13:15:29;;;;;;;;;;;26.00;1.00;;;;;;6267450;22;19931;-90
2022/09/03 13:18:05;;;;;;;;;;;25.90;1.00;;;;;;6261086;22;19916;-90
2022/09/03 13:20:34;;;;;;;;;;;26.10;1.00;;;;;;6279189;22;19918;-89
2022/09/03 13:23:05;;;;;;;;;;;26.20;1.00;;;;;;6278076;22;19915;-89
2022/09/03 13:25:34;;;;;;;;;;;26.20;1.00;;;;;;6252241;22;20654;-89
2022/09/03 13:28:06;;;;;;;;;;;26.30;1.00;;;;;;6277632;22;20354;-90
2022/09/03 13:30:42;;;;;;;;;;;26.50;1.00;;;;;;6265435;22;19915;-89
2022/09/03 13:41:28;;;;;;;;;;;26.30;1.00;;;;;;6278788;22;19903;-89
2022/09/03 13:44:31;;;;;;;;;;;26.50;1.00;;;;;;6228510;23;19911;-89
2022/09/03 13:54:36;;;;;;;;;;;26.60;1.00;;;;;;6155795;23;19911;-85
2022/09/03 13:57:17;;;;;;;;;;;26.50;1.00;;;;;;6131345;23;19917;-89
2022/09/03 14:00:43;;;;;;;;;;;26.60;1.00;;;;;;6137900;23;19998;-89
2022/09/03 14:03:16;;;;;;;;;;;26.90;1.00;;;;;;6153741;23;19921;-88
2022/09/03 14:05:52;;;;;;;;;;;26.80;1.00;;;;;;6130601;23;20222;-89
2022/09/03 14:08:27;;;;;;;;;;;27.10;1.00;;;;;;6106077;23;19959;-86
2022/09/03 14:11:12;;;;;;;;;;;27.10;1.00;;;;;;6155061;23;19916;-85
2022/09/03 14:13:39;;;;;;;;;;;27.00;1.00;;;;;;6154628;23;19923;-85
2022/09/03 14:16:09;;;;;;;;;;;27.00;1.00;;;;;;6156109;23;20348;-84
2022/09/03 14:18:36;;;;;;;;;;;27.00;1.00;;;;;;6156181;23;20278;-88
2022/09/03 14:21:06;;;;;;;;;;;27.40;1.00;;;;;;6106833;23;20312;-85
2022/09/03 14:23:44;;;;;;;;;;;27.40;1.00;;;;;;6143983;23;19995;-90
2022/09/03 14:33:08;;;;;;;;;;;27.40;1.00;;;;;;6271817;22;19981;-86
2022/09/03 14:35:47;;;;;;;;;;;27.30;1.00;;;;;;6227785;22;19915;-85
2022/09/03 14:38:19;;;;;;;;;;;27.40;1.00;;;;;;6279246;22;19954;-85
2022/09/03 14:41:19;;;;;;;;;;;27.40;1.00;;;;;;6279701;22;19965;-90
2022/09/03 14:43:49;;;;;;;;;;;27.30;1.00;;;;;;6252832;22;20232;-88
2022/09/03 14:46:41;;;;;;;;;;;27.30;1.00;;;;;;6245924;22;19916;-89
2022/09/03 15:10:05;;;;;;;;;;;28.60;1.00;;;;;;6184413;23;19910;-88
2022/09/03 16:42:51;;;;;;;;;;;27.90;1.00;;;;;;6217328;22;19955;-90
2022/09/03 16:49:28;;;;;;;;;;;27.90;1.00;;;;;;6186448;23;19922;-86
2022/09/03 16:52:01;;;;;;;;;;;28.00;1.00;;;;;;6217465;23;19915;-85
2022/09/03 16:54:51;;;;;;;;;;;27.70;1.00;;;;;;6217124;23;19920;-84
2022/09/03 16:57:23;;;;;;;;;;;27.50;1.00;;;;;;6189358;23;19939;-87
2022/09/03 17:00:03;;;;;;;;;;;27.40;1.00;;;;;;6216837;23;19926;-89
2022/09/03 17:02:53;;;;;;;;;;;27.70;1.00;;;;;;6155418;23;19974;-86
2022/09/03 17:14:00;;;;;;;;;;;27.30;1.00;;;;;;6217469;23;19943;-91
2022/09/03 17:17:05;;;;;;;;;;;27.30;1.00;;;;;;6186338;23;19927;-85
2022/09/03 17:19:32;;;;;;;;;;;26.70;1.00;;;;;;6217561;23;20415;-84
2022/09/03 17:22:09;;;;;;;;;;;26.70;1.00;;;;;;6218744;23;19916;-86
2022/09/03 17:24:46;;;;;;;;;;;26.60;1.00;;;;;;6219854;23;19958;-88
2022/09/03 17:27:34;;;;;;;;;;;26.60;1.00;;;;;;6218740;23;20328;-84
2022/09/03 17:30:00;;;;;;;;;;;26.80;1.00;;;;;;6139554;23;20002;-84
2022/09/03 17:32:46;;;;;;;;;;;26.90;1.00;;;;;;6191450;23;19922;-86
2022/09/03 17:35:18;;;;;;;;;;;26.60;1.00;;;;;;6219292;23;20006;-85
2022/09/03 17:37:51;;;;;;;;;;;26.60;1.00;;;;;;6219235;23;19920;-85
2022/09/03 17:40:27;;;;;;;;;;;26.80;1.00;;;;;;6219989;23;20224;-85
2022/09/03 17:42:54;;;;;;;;;;;27.00;1.00;;;;;;6219210;23;19916;-85
2022/09/03 17:45:40;;;;;;;;;;;26.90;1.00;;;;;;6219332;23;19922;-85
2022/09/03 17:48:33;;;;;;;;;;;26.70;1.00;;;;;;6187539;23;20252;-87
2022/09/03 17:51:04;;;;;;;;;;;26.60;1.00;;;;;;6219762;23;19915;-87
2022/09/03 17:53:43;;;;;;;;;;;26.20;1.00;;;;;;6192935;23;20303;-87
2022/09/03 17:56:35;;;;;;;;;;;26.20;1.00;;;;;;6219491;23;20255;-87
2022/09/03 17:59:59;;;;;;;;;;;26.20;1.00;;;;;;6154733;23;19922;-89
2022/09/03 20:40:06;;;;;;;;;;;;;;;;;;;;;
2022/09/03 21:13:32;;;;;;;;;;;22.60;1.00;;;;;;6126132;23;20389;-89
2022/09/03 21:27:59;;;;;;;;;;;22.50;1.00;;;;;;6188310;23;20237;-88
2022/09/03 21:30:44;;;;;;;;;;;22.60;1.00;;;;;;6161933;23;19916;-88
2022/09/03 21:33:39;;;;;;;;;;;22.60;1.00;;;;;;6185915;23;20229;-89
2022/09/03 21:36:36;;;;;;;;;;;22.60;1.00;;;;;;6161303;23;19930;-89
2022/09/03 21:39:23;;;;;;;;;;;22.60;1.00;;;;;;6138421;23;19923;-89
2022/09/03 21:42:11;;;;;;;;;;;22.40;1.00;;;;;;6187849;23;19936;-88
2022/09/03 21:45:19;;;;;;;;;;;22.30;1.00;;;;;;6163778;23;19939;-88
2022/09/03 21:48:36;;;;;;;;;;;22.40;1.00;;;;;;6172403;23;19916;-88
2022/09/03 21:51:40;;;;;;;;;;;22.10;1.00;;;;;;6166203;23;19939;-89
2022/09/03 21:54:23;;;;;;;;;;;22.10;1.00;;;;;;6139210;23;19924;-88
2022/09/03 21:57:22;;;;;;;;;;;21.90;1.00;;;;;;6161526;23;19916;-88
2022/09/03 22:00:31;;;;;;;;;;;21.80;1.00;;;;;;6167693;23;19916;-88
2022/09/03 22:03:22;;;;;;;;;;;21.60;1.00;;;;;;6140101;23;19916;-88
2022/09/03 22:05:56;;;;;;;;;;;21.80;1.00;;;;;;6161665;23;19986;-88
2022/09/03 22:08:34;;;;;;;;;;;21.90;1.00;;;;;;6163912;23;20333;-88
2022/09/03 22:11:15;;;;;;;;;;;22.00;1.00;;;;;;6140625;23;19971;-88
2022/09/03 22:13:48;;;;;;;;;;;21.90;1.00;;;;;;6138710;23;19916;-87
2022/09/03 22:16:44;;;;;;;;;;;22.00;1.00;;;;;;6163538;23;20249;-89
2022/09/03 22:19:26;;;;;;;;;;;21.90;1.00;;;;;;6138390;23;19916;-89
2022/09/03 22:22:02;;;;;;;;;;;22.00;1.00;;;;;;6162933;23;20281;-88
2022/09/03 22:24:44;;;;;;;;;;;22.10;1.00;;;;;;6165214;23;19962;-88
2022/09/03 22:27:34;;;;;;;;;;;22.10;1.00;;;;;;6161356;23;19970;-89
2022/09/03 22:30:17;;;;;;;;;;;22.10;1.00;;;;;;6164285;23;19931;-88
2022/09/03 22:33:07;;;;;;;;;;;22.00;1.00;;;;;;6188993;23;19916;-88
2022/09/03 22:36:00;;;;;;;;;;;22.10;1.00;;;;;;6165780;23;19943;-87
2022/09/03 22:38:42;;;;;;;;;;;22.00;1.00;;;;;;6168505;23;19923;-88
2022/09/03 22:41:23;;;;;;;;;;;21.90;1.00;;;;;;6164361;23;19922;-89
2022/09/03 22:44:17;;;;;;;;;;;21.90;1.00;;;;;;6140498;23;19943;-87
2022/09/03 22:47:14;;;;;;;;;;;21.90;1.00;;;;;;6198220;23;20252;-88
2022/09/03 22:49:53;;;;;;;;;;;21.90;1.00;;;;;;6166510;23;19916;-89
2022/09/03 22:52:30;;;;;;;;;;;21.90;1.00;;;;;;6190524;23;19944;-89
2022/09/03 22:55:22;;;;;;;;;;;21.90;1.00;;;;;;6165643;23;20332;-89
2022/09/03 22:58:18;;;;;;;;;;;21.90;1.00;;;;;;6162393;23;19916;-89
2022/09/03 23:01:33;;;;;;;;;;;21.90;1.00;;;;;;6162479;23;19917;-89
2022/09/03 23:04:25;;;;;;;;;;;21.70;1.00;;;;;;6089533;23;20333;-89
2022/09/03 23:07:52;;;;;;;;;;;21.70;1.00;;;;;;6105275;23;19912;-89
2022/09/03 23:10:54;;;;;;;;;;;21.80;1.00;;;;;;6180309;23;20269;-88
2022/09/03 23:13:55;;;;;;;;;;;21.60;1.00;;;;;;6162601;23;19916;-88
2022/09/03 23:16:41;;;;;;;;;;;21.70;1.00;;;;;;6163081;23;19916;-88
2022/09/03 23:19:34;;;;;;;;;;;21.70;1.00;;;;;;6163318;23;19919;-89
2022/09/03 23:22:33;;;;;;;;;;;21.50;1.00;;;;;;6163377;23;20011;-89
2022/09/03 23:28:23;;;;;;;;;;;21.60;1.00;;;;;;6153957;23;19947;-89
2022/09/03 23:31:10;;;;;;;;;;;21.50;1.00;;;;;;6170453;23;19900;-89
2022/09/03 23:33:50;;;;;;;;;;;21.50;1.00;;;;;;6168104;23;19900;-89
2022/09/03 23:36:36;;;;;;;;;;;21.50;1.00;;;;;;6188855;23;19946;-89
2022/09/03 23:39:44;;;;;;;;;;;21.50;1.00;;;;;;6189284;23;19900;-88
2022/09/03 23:42:45;;;;;;;;;;;21.40;1.00;;;;;;6194519;23;19907;-89
2022/09/03 23:45:51;;;;;;;;;;;21.40;1.00;;;;;;6164063;23;19970;-89
2022/09/03 23:48:45;;;;;;;;;;;21.40;1.00;;;;;;6164448;23;19922;-88
2022/09/03 23:51:59;;;;;;;;;;;21.40;1.00;;;;;;6154918;23;19926;-89
2022/09/03 23:55:06;;;;;;;;;;;21.40;1.00;;;;;;6142300;23;19917;-89
2022/09/03 23:58:02;;;;;;;;;;;21.40;1.00;;;;;;6163428;23;19919;-88
